createdAt,value
2023-05-01T06:16:31.219Z,98709.05
2023-05-01T06:18:58.074Z,98709.77
2023-05-01T06:21:25.465Z,98706.14
2023-05-01T06:23:52.392Z,98712.70
2023-05-01T06:26:29.613Z,98705.16
2023-05-01T06:28:56.544Z,98706.45
2023-05-01T06:31:23.737Z,98707.30
2023-05-01T06:33:53.776Z,98707.20
2023-05-01T06:36:47.009Z,98710.75
2023-05-01T06:39:14.419Z,98709.83
2023-05-01T06:41:41.339Z,98715.48
2023-05-01T06:44:08.221Z,98714.09
2023-05-01T06:46:35.498Z,98711.60
2023-05-01T06:49:04.795Z,98710.47
2023-05-01T06:51:32.802Z,98708.58
2023-05-01T06:53:59.824Z,98709.79
2023-05-01T06:56:31.848Z,98712.39
2023-05-01T06:59:00.057Z,98718.24
2023-05-01T07:01:27.016Z,98713.48
2023-05-01T07:03:57.101Z,98718.34
2023-05-01T07:06:24.540Z,98717.62
2023-05-01T07:08:52.394Z,98718.20
2023-05-01T07:11:19.834Z,98715.95
2023-05-01T07:13:46.732Z,98713.66
2023-05-01T07:16:13.582Z,98710.86
2023-05-01T07:18:40.406Z,98712.52
2023-05-01T07:21:09.602Z,98714.65
2023-05-01T07:23:36.552Z,98716.81
2023-05-01T07:26:03.802Z,98713.35
2023-05-01T07:28:30.889Z,98714.61
2023-05-01T07:30:58.186Z,98718.66
2023-05-01T07:33:25.586Z,98716.84
2023-05-01T07:35:52.584Z,98720.52
2023-05-01T07:38:20.262Z,98722.09
2023-05-01T07:40:47.324Z,98721.83
2023-05-01T07:43:14.066Z,98720.35
2023-05-01T07:45:42.111Z,98721.98
2023-05-01T07:48:09.097Z,98722.83
2023-05-01T07:50:35.808Z,98719.61
2023-05-01T07:53:03.031Z,98719.23
2023-05-01T07:55:30.039Z,98715.05
2023-05-01T07:57:57.086Z,98715.70
2023-05-01T08:00:23.938Z,98718.73
2023-05-01T08:02:51.253Z,98714.06
2023-05-01T08:05:18.064Z,98716.11
2023-05-01T08:07:44.802Z,98714.43
2023-05-01T08:10:41.803Z,98717.39
2023-05-01T08:13:08.602Z,98715.62
2023-05-01T08:15:38.836Z,98713.73
2023-05-01T08:18:08.788Z,98711.02
2023-05-01T08:20:36.262Z,98711.19
2023-05-01T08:23:09.228Z,98714.50
2023-05-01T08:25:36.305Z,98716.92
2023-05-01T08:28:03.225Z,98716.93
2023-05-01T08:30:31.258Z,98716.05
2023-05-01T08:32:58.155Z,98716.34
2023-05-01T08:35:24.870Z,98718.42
2023-05-01T08:37:51.684Z,98718.83
2023-05-01T08:40:18.398Z,98710.92
2023-05-01T08:42:45.285Z,98711.09
2023-05-01T08:45:12.520Z,98711.48
2023-05-01T08:47:39.671Z,98714.98
2023-05-01T08:50:13.435Z,98718.39
2023-05-01T08:52:42.066Z,98717.86
2023-05-01T08:55:13.795Z,98714.09
2023-05-01T08:57:45.106Z,98718.20
2023-05-01T09:00:20.137Z,98713.95
2023-05-01T09:02:48.718Z,98713.38
2023-05-01T09:05:16.612Z,98710.63
2023-05-01T09:07:45.460Z,98709.69
2023-05-01T09:10:13.586Z,98715.23
2023-05-01T09:12:41.518Z,98710.29
2023-05-01T09:15:08.592Z,98715.20
2023-05-01T09:17:36.388Z,98712.55
2023-05-01T09:20:07.099Z,98714.62
2023-05-01T09:22:38.123Z,98708.19
2023-05-01T09:25:05.932Z,98708.79
2023-05-01T09:27:36.890Z,98708.04
2023-05-01T09:30:06.986Z,98705.61
2023-05-01T09:32:41.918Z,98706.13
2023-05-01T09:35:13.707Z,98702.78
2023-05-01T09:37:40.823Z,98702.46
2023-05-01T09:40:11.020Z,98698.88
2023-05-01T09:42:39.545Z,98698.89
2023-05-01T09:45:14.384Z,98698.66
2023-05-01T09:47:43.428Z,98696.73
2023-05-01T09:50:12.068Z,98699.40
2023-05-01T09:52:40.050Z,98696.52
2023-05-01T09:55:16.887Z,98700.27
2023-05-01T09:57:49.925Z,98696.48
2023-05-01T10:00:18.013Z,98695.20
2023-05-01T10:02:46.349Z,98697.05
2023-05-01T10:05:13.414Z,98694.05
2023-05-01T10:07:56.702Z,98693.83
2023-05-01T10:10:23.722Z,98692.80
2023-05-01T10:12:52.961Z,98696.11
2023-05-01T10:15:25.478Z,98691.40
2023-05-01T10:17:53.689Z,98685.70
2023-05-01T10:20:20.953Z,98683.65
2023-05-01T10:22:48.205Z,98682.92
2023-05-01T10:25:16.162Z,98684.68
2023-05-01T10:27:44.086Z,98682.24
2023-05-01T10:30:11.184Z,98679.48
2023-05-01T10:32:38.262Z,98680.05
2023-05-01T10:35:08.394Z,98680.16
2023-05-01T10:37:45.003Z,98678.13
2023-05-01T10:40:40.471Z,98678.48
2023-05-01T10:43:32.539Z,98681.66
2023-05-01T10:46:20.673Z,98682.73
2023-05-01T10:48:50.470Z,98686.61
2023-05-01T10:51:25.649Z,98682.91
2023-05-01T10:54:36.012Z,98678.95
2023-05-01T10:57:03.681Z,98680.44
2023-05-01T11:00:04.618Z,98682.05
2023-05-01T11:02:32.829Z,98681.23
2023-05-01T11:05:00.025Z,98679.41
2023-05-01T11:07:27.762Z,98679.64
2023-05-01T11:09:57.123Z,98680.83
2023-05-01T11:12:45.770Z,98683.34
2023-05-01T11:15:17.210Z,98680.18
2023-05-01T11:17:44.231Z,98676.73
2023-05-01T11:20:12.039Z,98674.89
2023-05-01T11:22:40.976Z,98670.48
2023-05-01T11:25:30.908Z,98669.98
2023-05-01T11:28:02.377Z,98669.48
2023-05-01T11:30:39.085Z,98664.66
2023-05-01T11:33:07.757Z,98665.22
2023-05-01T11:35:38.226Z,98664.39
2023-05-01T11:38:05.518Z,98663.58
2023-05-01T11:40:34.271Z,98661.35
2023-05-01T11:43:07.854Z,98655.20
2023-05-01T11:45:35.649Z,98655.00
2023-05-01T11:48:04.606Z,98654.86
2023-05-01T11:50:33.148Z,98650.50
2023-05-01T11:53:00.183Z,98645.02
2023-05-01T11:55:33.721Z,98642.68
2023-05-01T11:58:00.715Z,98643.77
2023-05-01T12:00:36.145Z,98637.46
2023-05-01T12:03:07.794Z,98641.22
2023-05-01T12:05:36.636Z,98631.53
2023-05-01T12:08:20.185Z,98628.97
2023-05-01T12:10:49.646Z,98626.88
2023-05-01T12:13:16.496Z,98626.56
2023-05-01T12:15:45.374Z,98626.27
2023-05-01T12:18:12.575Z,98622.95
2023-05-01T12:20:43.277Z,98618.13
2023-05-01T12:23:11.601Z,98621.58
2023-05-01T12:25:57.555Z,98617.64
2023-05-01T12:28:24.982Z,98616.39
2023-05-01T12:30:51.857Z,98618.96
2023-05-01T12:33:20.170Z,98614.50
2023-05-01T12:35:48.696Z,98614.98
2023-05-01T12:38:22.178Z,98613.17
2023-05-01T12:40:56.805Z,98616.35
2023-05-01T12:43:34.284Z,98609.95
2023-05-01T12:46:01.645Z,98606.78
2023-05-01T12:48:28.661Z,98602.73
2023-05-01T12:50:55.883Z,98600.06
2023-05-01T12:53:23.754Z,98604.19
2023-05-01T12:55:56.430Z,98598.91
2023-05-01T12:58:23.901Z,98599.84
2023-05-01T13:00:53.097Z,98598.10
2023-05-01T13:03:27.160Z,98599.27
2023-05-01T13:05:55.115Z,98598.27
2023-05-01T13:08:42.492Z,98596.15
2023-05-01T13:11:13.772Z,98597.21
2023-05-01T13:13:40.922Z,98595.52
2023-05-01T13:16:10.261Z,98596.28
2023-05-01T13:20:55.484Z,98596.32
2023-05-01T13:23:22.402Z,98595.39
2023-05-01T13:25:56.339Z,98595.49
2023-05-01T13:28:23.169Z,98593.61
2023-05-01T13:30:50.094Z,98594.70
2023-05-01T13:33:17.192Z,98590.60
2023-05-01T13:35:45.352Z,98583.97
2023-05-01T13:38:12.878Z,98583.11
2023-05-01T13:40:40.165Z,98580.73
2023-05-01T13:43:13.034Z,98580.11
2023-05-01T13:45:40.957Z,98581.64
2023-05-01T13:48:08.765Z,98577.16
2023-05-01T13:50:36.325Z,98571.98
2023-05-01T13:53:03.415Z,98569.59
2023-05-01T13:55:30.306Z,98567.77
2023-05-01T13:57:57.493Z,98569.19
2023-05-01T14:00:26.054Z,98563.91
2023-05-01T14:02:54.286Z,98567.71
2023-05-01T14:05:25.983Z,98567.32
2023-05-01T14:07:57.864Z,98567.76
2023-05-01T14:10:27.721Z,98568.25
2023-05-01T14:12:59.381Z,98563.92
2023-05-01T14:15:27.158Z,98562.09
2023-05-01T14:17:54.141Z,98557.21
2023-05-01T14:20:21.293Z,98556.70
2023-05-01T14:22:48.803Z,98557.63
2023-05-01T14:25:30.062Z,98556.32
2023-05-01T14:27:58.528Z,98556.37
2023-05-01T14:30:33.862Z,98558.89
2023-05-01T14:33:09.589Z,98554.82
2023-05-01T14:35:36.893Z,98552.48
2023-05-01T14:38:09.810Z,98554.92
2023-05-01T14:40:36.724Z,98550.80
2023-05-01T14:43:03.809Z,98555.38
2023-05-01T14:45:30.870Z,98555.16
2023-05-01T14:47:57.850Z,98552.75
2023-05-01T14:50:24.943Z,98552.36
2023-05-01T14:52:55.770Z,98554.48
2023-05-01T14:55:34.813Z,98554.25
2023-05-01T14:58:02.108Z,98555.29
2023-05-01T15:00:29.035Z,98549.52
2023-05-01T15:02:58.643Z,98548.65
2023-05-01T15:05:29.181Z,98553.68
2023-05-01T15:08:00.645Z,98550.52
2023-05-01T15:10:28.956Z,98549.27
2023-05-01T15:12:55.892Z,98544.68
2023-05-01T15:15:22.785Z,98541.85
2023-05-01T15:17:49.790Z,98541.03
2023-05-01T15:20:16.685Z,98539.55
2023-05-01T15:22:43.555Z,98539.50
2023-05-01T15:25:13.569Z,98539.98
2023-05-01T15:27:40.416Z,98543.14
2023-05-01T15:30:09.432Z,98544.19
2023-05-01T15:32:41.547Z,98543.92
2023-05-01T15:35:09.346Z,98541.69
2023-05-01T15:37:37.772Z,98543.27
2023-05-01T15:40:09.839Z,98545.77
2023-05-01T15:42:36.696Z,98542.98
2023-05-01T15:45:03.842Z,98542.33
2023-05-01T15:47:31.074Z,98544.01
2023-05-01T15:49:58.276Z,98543.18
2023-05-01T15:52:25.735Z,98546.44
2023-05-01T15:54:52.594Z,98545.12
2023-05-01T15:57:19.633Z,98543.37
2023-05-01T15:59:46.534Z,98543.08
2023-05-01T16:02:13.448Z,98543.39
2023-05-01T16:04:40.468Z,98545.84
2023-05-01T16:07:09.012Z,98545.46
2023-05-01T16:09:35.980Z,98543.75
2023-05-01T16:12:03.349Z,98543.58
2023-05-01T16:14:31.246Z,98545.86
2023-05-01T16:16:58.259Z,98549.39
2023-05-01T16:19:25.244Z,98547.63
2023-05-01T16:21:52.352Z,98549.93
2023-05-01T16:24:19.335Z,98549.02
2023-05-01T16:26:46.326Z,98549.76
2023-05-01T16:29:13.249Z,98552.95
2023-05-01T16:31:42.125Z,98555.05
2023-05-01T16:34:13.619Z,98555.72
2023-05-01T16:36:42.517Z,98558.03
2023-05-01T16:39:11.697Z,98556.94
2023-05-01T16:41:52.472Z,98557.05
2023-05-01T16:44:20.034Z,98552.84
2023-05-01T16:46:54.399Z,98553.08
2023-05-01T16:49:21.944Z,98558.75
2023-05-01T16:51:48.861Z,98563.55
2023-05-01T16:54:16.323Z,98559.92
2023-05-01T16:59:16.114Z,98565.09
2023-05-01T17:01:43.208Z,98570.10
2023-05-01T17:04:10.074Z,98570.81
2023-05-01T17:06:37.225Z,98571.02
2023-05-01T17:09:04.333Z,98575.98
2023-05-01T17:11:32.039Z,98576.25
2023-05-01T17:13:59.100Z,98582.02
2023-05-01T17:16:26.090Z,98584.90
2023-05-01T17:18:53.068Z,98583.97
2023-05-01T17:21:19.952Z,98580.16
2023-05-01T17:23:46.804Z,98579.98
2023-05-01T17:26:16.051Z,98577.98
2023-05-01T17:28:45.126Z,98587.42
2023-05-01T17:31:12.181Z,98588.36
2023-05-01T17:33:39.296Z,98588.15
2023-05-01T17:36:06.256Z,98590.45
2023-05-01T17:38:33.161Z,98590.89
2023-05-01T17:41:00.075Z,98595.79
2023-05-01T17:43:26.945Z,98596.79
2023-05-01T17:45:54.930Z,98598.92
2023-05-01T17:48:22.082Z,98600.56
2023-05-01T17:50:56.671Z,98599.54
2023-05-01T17:53:24.065Z,98603.52
2023-05-01T17:55:51.015Z,98605.66
2023-05-01T17:58:18.011Z,98612.19
2023-05-01T18:00:44.992Z,98613.21
2023-05-01T18:03:12.578Z,98615.75
2023-05-01T18:05:39.763Z,98620.67
2023-05-01T18:08:06.879Z,98624.35
2023-05-01T18:10:34.059Z,98622.22
2023-05-01T18:13:03.381Z,98626.67
2023-05-01T18:15:30.471Z,98625.44
2023-05-01T18:17:57.365Z,98627.40
2023-05-01T18:20:24.366Z,98626.05
2023-05-01T18:22:53.418Z,98630.58
2023-05-01T18:25:20.299Z,98630.33
2023-05-01T18:27:47.203Z,98632.95
2023-05-01T18:30:14.937Z,98627.73
2023-05-01T18:32:48.021Z,98627.58
2023-05-01T18:35:17.229Z,98628.78
2023-05-01T18:37:44.237Z,98634.38
2023-05-01T18:40:11.709Z,98636.38
2023-05-01T18:42:40.801Z,98639.29
2023-05-01T18:45:08.351Z,98636.11
2023-05-01T18:47:35.622Z,98639.27
2023-05-01T18:50:02.867Z,98643.36
2023-05-01T18:54:36.251Z,98647.30
2023-05-01T18:57:03.116Z,98649.55
2023-05-01T18:59:31.175Z,98652.46
2023-05-01T19:01:58.560Z,98653.20
2023-05-01T19:04:25.710Z,98656.08
2023-05-01T19:06:52.691Z,98657.10
2023-05-01T19:09:19.881Z,98661.21
2023-05-01T19:11:46.765Z,98663.50
2023-05-01T19:14:13.641Z,98664.84
2023-05-01T19:16:40.814Z,98667.22
2023-05-01T19:19:07.976Z,98666.77
2023-05-01T19:21:34.852Z,98670.83
2023-05-01T19:24:01.940Z,98674.40
2023-05-01T19:30:28.338Z,98677.10
2023-05-01T19:32:55.845Z,98678.40
2023-05-01T19:35:43.783Z,98678.05
2023-05-01T19:38:10.810Z,98682.75
2023-05-01T19:40:39.784Z,98680.80
2023-05-01T19:43:06.744Z,98684.23
2023-05-01T19:45:34.128Z,98683.88
2023-05-01T19:48:01.324Z,98686.42
2023-05-01T19:50:28.202Z,98683.27
2023-05-01T19:52:55.237Z,98682.45
2023-05-01T19:55:22.058Z,98678.77
2023-05-01T19:57:49.192Z,98680.73
2023-05-01T20:00:16.332Z,98682.39
2023-05-01T20:02:43.336Z,98686.75
2023-05-01T20:05:11.005Z,98686.64
2023-05-01T20:07:37.882Z,98687.35
2023-05-01T20:10:05.886Z,98694.74
2023-05-01T20:12:33.248Z,98695.59
2023-05-01T20:15:00.751Z,98693.28
2023-05-01T20:17:27.793Z,98693.60
2023-05-01T20:19:54.692Z,98691.67
2023-05-01T20:22:21.568Z,98694.91
2023-05-01T20:24:48.458Z,98691.61
2023-05-01T20:27:15.901Z,98694.45
2023-05-01T20:29:42.852Z,98695.09
2023-05-01T20:32:09.842Z,98694.75
2023-05-01T20:34:36.663Z,98693.48
2023-05-01T20:37:03.969Z,98696.86
2023-05-01T20:39:30.855Z,98701.85
2023-05-01T20:41:59.212Z,98695.55
2023-05-01T20:44:26.092Z,98692.13
2023-05-01T20:46:53.215Z,98691.70
2023-05-01T20:49:20.715Z,98690.51
2023-05-01T20:51:47.781Z,98691.02
2023-05-01T20:54:14.627Z,98687.79
2023-05-01T20:56:41.806Z,98685.17
2023-05-01T20:59:08.804Z,98683.36
2023-05-01T21:01:35.763Z,98687.90
2023-05-01T21:04:03.840Z,98684.13
2023-05-01T21:06:33.939Z,98685.45
2023-05-01T21:09:01.266Z,98687.70
2023-05-01T21:11:28.284Z,98688.77
2023-05-01T21:13:55.129Z,98688.14
2023-05-01T21:16:22.134Z,98689.78
2023-05-01T21:18:48.937Z,98689.73
2023-05-01T21:21:16.213Z,98691.80
2023-05-01T21:23:49.174Z,98692.02
2023-05-01T21:26:16.465Z,98691.93
2023-05-01T21:28:43.728Z,98695.13
2023-05-01T21:31:12.589Z,98692.45
2023-05-01T21:33:40.504Z,98696.61
2023-05-01T21:36:07.327Z,98700.95
2023-05-01T21:38:35.112Z,98699.98
2023-05-01T21:41:02.308Z,98701.58
2023-05-01T21:43:31.851Z,98693.82
2023-05-01T21:45:58.772Z,98694.17
2023-05-01T21:48:25.660Z,98692.23
2023-05-01T21:50:52.477Z,98693.00
2023-05-01T21:53:19.364Z,98694.70
2023-05-01T21:55:46.629Z,98695.73
2023-05-01T21:58:13.731Z,98693.40
2023-05-01T22:00:43.488Z,98694.75
2023-05-01T22:03:10.971Z,98693.85
2023-05-01T22:05:41.053Z,98695.95
2023-05-01T22:08:08.045Z,98696.71
2023-05-01T22:10:35.277Z,98698.71
2023-05-01T22:13:02.460Z,98697.49
2023-05-01T22:15:29.345Z,98697.71
2023-05-01T22:17:56.831Z,98698.38
2023-05-01T22:20:23.704Z,98693.26
2023-05-01T22:22:50.547Z,98694.55
2023-05-01T22:25:17.516Z,98692.81
2023-05-01T22:27:44.427Z,98688.84
2023-05-01T22:30:11.817Z,98689.23
2023-05-01T22:32:38.857Z,98688.10
2023-05-01T22:35:08.533Z,98685.08
2023-05-01T22:37:35.464Z,98683.16
2023-05-01T22:40:02.795Z,98686.58
2023-05-01T22:42:30.005Z,98688.37
2023-05-01T22:44:56.967Z,98691.49
2023-05-01T22:47:23.887Z,98694.94
2023-05-01T22:49:50.860Z,98687.67
2023-05-01T22:52:17.939Z,98685.25
2023-05-01T22:54:44.811Z,98681.33
2023-05-01T22:57:11.744Z,98678.00
2023-05-01T22:59:40.460Z,98676.48
2023-05-01T23:02:07.535Z,98670.81
2023-05-01T23:04:34.409Z,98668.09
2023-05-01T23:07:01.345Z,98671.19
2023-05-01T23:09:30.606Z,98671.45
2023-05-01T23:11:57.678Z,98663.81
2023-05-01T23:14:25.859Z,98659.67
2023-05-01T23:16:52.850Z,98657.03
2023-05-01T23:19:21.711Z,98656.21
2023-05-01T23:21:49.358Z,98653.61
2023-05-01T23:24:18.217Z,98650.77
2023-05-01T23:26:45.119Z,98650.38
2023-05-01T23:29:13.198Z,98648.73
2023-05-01T23:31:44.892Z,98649.73
2023-05-01T23:34:15.223Z,98650.34
2023-05-01T23:36:44.127Z,98653.70
2023-05-01T23:39:11.262Z,98658.23
2023-05-01T23:41:38.174Z,98662.33
2023-05-01T23:44:05.166Z,98654.35
2023-05-01T23:46:32.408Z,98652.12
2023-05-01T23:48:59.493Z,98653.48
2023-05-01T23:51:27.796Z,98648.34
2023-05-01T23:57:04.774Z,98647.31
2023-05-01T23:59:31.630Z,98646.06
